createdAt,value
2023-05-05T00:01:46.155Z,11.32
2023-05-05T00:04:14.015Z,11.30
2023-05-05T00:06:42.288Z,11.30
2023-05-05T00:09:10.062Z,11.30
2023-05-05T00:11:38.022Z,11.30
2023-05-05T00:14:06.571Z,11.22
2023-05-05T00:16:34.343Z,11.20
2023-05-05T00:19:02.078Z,11.20
2023-05-05T00:21:29.799Z,11.20
2023-05-05T00:23:57.567Z,11.10
2023-05-05T00:26:25.387Z,11.10
2023-05-05T00:28:53.353Z,11.10
2023-05-05T00:31:21.424Z,11.10
2023-05-05T00:33:49.170Z,11.10
2023-05-05T00:36:16.921Z,11.10
2023-05-05T00:38:44.657Z,11.00
2023-05-05T00:41:12.447Z,11.00
2023-05-05T00:43:40.234Z,11.00
2023-05-05T00:46:27.361Z,11.00
2023-05-05T00:48:56.213Z,11.00
2023-05-05T00:51:24.586Z,10.92
2023-05-05T00:53:53.119Z,10.90
2023-05-05T00:56:25.132Z,10.90
2023-05-05T00:58:53.523Z,10.90
2023-05-05T01:01:21.305Z,10.90
2023-05-05T01:06:46.509Z,10.90
2023-05-05T01:09:46.286Z,10.88
2023-05-05T01:12:45.465Z,10.80
2023-05-05T01:15:27.477Z,10.80
2023-05-05T01:18:04.392Z,10.80
2023-05-05T01:20:56.077Z,10.72
2023-05-05T01:24:06.593Z,10.70
2023-05-05T01:27:10.720Z,10.70
2023-05-05T01:30:02.234Z,10.70
2023-05-05T01:32:34.226Z,10.70
2023-05-05T01:35:30.078Z,10.70
2023-05-05T01:38:11.892Z,10.70
2023-05-05T01:40:47.094Z,10.70
2023-05-05T01:43:20.288Z,10.70
2023-05-05T01:45:49.021Z,10.70
2023-05-05T01:48:19.562Z,10.70
2023-05-05T01:50:50.015Z,10.70
2023-05-05T01:53:19.072Z,10.70
2023-05-05T01:55:49.369Z,10.70
2023-05-05T01:58:17.556Z,10.70
2023-05-05T02:00:46.999Z,10.70
2023-05-05T02:03:15.949Z,10.70
2023-05-05T02:05:47.862Z,10.70
2023-05-05T02:08:17.041Z,10.70
2023-05-05T02:10:45.193Z,10.70
2023-05-05T02:13:15.438Z,10.70
2023-05-05T02:15:44.107Z,10.70
2023-05-05T02:18:12.728Z,10.70
2023-05-05T02:20:41.161Z,10.70
2023-05-05T02:23:09.170Z,10.70
2023-05-05T02:25:55.418Z,10.70
2023-05-05T02:28:40.677Z,10.70
2023-05-05T02:31:12.148Z,10.70
2023-05-05T02:33:41.676Z,10.70
2023-05-05T02:36:20.418Z,10.70
2023-05-05T02:39:02.031Z,10.70
2023-05-05T02:41:34.827Z,10.70
2023-05-05T02:44:06.589Z,10.70
2023-05-05T02:46:37.216Z,10.70
2023-05-05T02:49:05.113Z,10.70
2023-05-05T02:51:33.310Z,10.74
2023-05-05T02:54:04.696Z,10.80
2023-05-05T02:56:34.735Z,10.80
2023-05-05T02:59:34.031Z,10.80
2023-05-05T03:02:45.733Z,10.80
2023-05-05T03:05:22.343Z,10.80
2023-05-05T03:08:44.228Z,10.80
2023-05-05T03:11:27.106Z,10.80
2023-05-05T03:14:05.547Z,10.80
2023-05-05T03:16:36.943Z,10.80
2023-05-05T03:19:08.584Z,10.80
2023-05-05T03:21:36.641Z,10.80
2023-05-05T03:24:19.269Z,10.80
2023-05-05T03:26:56.155Z,10.88
2023-05-05T03:29:25.513Z,10.90
2023-05-05T03:31:53.837Z,10.90
2023-05-05T03:34:21.643Z,10.90
2023-05-05T03:36:49.651Z,11.00
2023-05-05T03:39:18.862Z,11.00
2023-05-05T03:41:47.295Z,11.00
2023-05-05T03:44:15.784Z,11.00
2023-05-05T03:46:43.518Z,11.00
2023-05-05T03:49:13.096Z,11.10
2023-05-05T03:51:42.083Z,11.10
2023-05-05T03:54:10.021Z,11.14
2023-05-05T03:56:37.850Z,11.20
2023-05-05T03:59:06.230Z,11.20
2023-05-05T04:01:35.306Z,11.22
2023-05-05T04:04:03.380Z,11.30
2023-05-05T04:06:32.121Z,11.34
2023-05-05T04:08:59.992Z,11.40
2023-05-05T04:11:27.823Z,11.50
2023-05-05T04:13:56.191Z,11.50
2023-05-05T04:16:24.658Z,11.60
2023-05-05T04:18:52.549Z,11.70
2023-05-05T04:21:20.403Z,11.70
2023-05-05T04:23:48.891Z,11.80
2023-05-05T04:26:17.141Z,11.88
2023-05-05T04:28:45.985Z,11.90
2023-05-05T04:31:14.982Z,11.94
2023-05-05T04:33:43.704Z,12.00
2023-05-05T04:36:12.098Z,12.08
2023-05-05T04:38:39.967Z,12.10
2023-05-05T04:41:07.813Z,12.20
2023-05-05T04:43:36.307Z,12.20
2023-05-05T04:46:04.711Z,12.30
2023-05-05T04:48:34.502Z,12.30
2023-05-05T04:51:06.722Z,12.40
2023-05-05T04:53:34.928Z,12.40
2023-05-05T04:56:02.836Z,12.50
2023-05-05T04:58:33.966Z,12.50
2023-05-05T05:01:01.868Z,12.60
2023-05-05T05:03:32.019Z,12.62
2023-05-05T05:05:59.938Z,12.70
2023-05-05T05:08:27.713Z,12.80
2023-05-05T05:10:55.487Z,12.80
2023-05-05T05:13:23.768Z,12.82
2023-05-05T05:15:51.961Z,12.80
2023-05-05T05:18:19.873Z,12.80
2023-05-05T05:20:47.740Z,12.80
2023-05-05T05:23:15.896Z,12.80
2023-05-05T05:25:44.578Z,12.80
2023-05-05T05:28:12.620Z,12.86
2023-05-05T05:30:45.258Z,12.90
2023-05-05T05:33:13.266Z,12.98
2023-05-05T05:35:41.258Z,13.18
2023-05-05T05:38:09.313Z,13.50
2023-05-05T05:40:37.411Z,14.00
2023-05-05T05:43:05.346Z,14.34
2023-05-05T05:45:33.782Z,14.68
2023-05-05T05:48:03.809Z,14.96
2023-05-05T05:50:31.997Z,15.00
2023-05-05T05:52:59.806Z,15.40
2023-05-05T05:55:27.969Z,15.40
2023-05-05T05:57:56.029Z,15.30
2023-05-05T06:00:24.819Z,15.20
2023-05-05T06:02:56.017Z,15.10
2023-05-05T06:05:26.135Z,15.00
2023-05-05T06:07:54.621Z,14.90
2023-05-05T06:10:27.973Z,14.80
2023-05-05T06:13:01.426Z,14.80
2023-05-05T06:15:29.803Z,14.80
2023-05-05T06:17:57.934Z,15.16
2023-05-05T06:20:26.198Z,15.60
2023-05-05T06:22:53.949Z,15.70
2023-05-05T06:25:22.073Z,16.00
2023-05-05T06:27:50.200Z,16.06
2023-05-05T06:30:18.234Z,16.68
2023-05-05T06:32:46.098Z,17.46
2023-05-05T06:35:13.896Z,18.06
2023-05-05T06:37:41.615Z,19.12
2023-05-05T06:40:10.731Z,19.44
2023-05-05T06:42:38.654Z,19.66
2023-05-05T06:45:09.438Z,20.06
2023-05-05T06:47:37.893Z,20.44
2023-05-05T06:50:07.558Z,20.52
2023-05-05T06:52:35.752Z,20.06
2023-05-05T06:55:04.612Z,19.70
2023-05-05T06:57:32.384Z,19.36
2023-05-05T07:00:00.383Z,19.02
2023-05-05T07:02:28.247Z,18.80
2023-05-05T07:04:57.932Z,18.60
2023-05-05T07:07:27.063Z,18.40
2023-05-05T07:09:54.827Z,18.20
2023-05-05T07:12:23.227Z,17.94
2023-05-05T07:14:51.378Z,17.76
2023-05-05T07:17:19.343Z,17.60
2023-05-05T07:19:47.142Z,17.50
2023-05-05T07:22:14.991Z,17.50
2023-05-05T07:24:42.888Z,17.50
2023-05-05T07:27:10.612Z,17.50
2023-05-05T07:29:38.332Z,17.40
2023-05-05T07:32:06.214Z,17.40
2023-05-05T07:34:34.740Z,17.42
2023-05-05T07:37:03.687Z,17.44
2023-05-05T07:39:31.564Z,17.50
2023-05-05T07:42:00.151Z,17.48
2023-05-05T07:44:28.364Z,17.40
2023-05-05T07:46:56.115Z,17.40
2023-05-05T07:49:23.953Z,17.40
2023-05-05T07:51:51.775Z,17.40
